Sea Iris — 3EXY4 — position and weather

sailwx.info

Track history (hours):
 
Tides and Currents Weather Stations Pressure Air Temp Water Temp Dewpoint Dewpoint Depression Visibility Wind Speed Wind Dir Waves Ship Positions

Sea Iris

Last reported at 2018-Jun-27 12:46 UTC. Time now 2018-Aug-17 11:42 UTC.
Position N 30°59' E 123°09'.
Warning: this ship's position is 50 days out of date.

Length 189 m; draft 7 m.

Type: Cargo ship. MMSI: 351012000.

Date/timePositionNaut miles runAvg speedWind from/ knotsBaromVisibWave heightAir tempDewpointWater temp
2018-Jun-27 12:46N 30°59' E 123°09'410.2
2018-Jun-27 12:23N 31°02' E 123°06'410.9
2018-Jun-27 12:00N 31°04' E 123°02'910.7
2018-Jun-27 11:09N 31°06' E 122°52'411.4
2018-Jun-27 10:49N 31°06' E 122°47'411.4
2018-Jun-27 10:30N 31°05' E 122°43'611.4
2018-Jun-27 10:00N 31°05' E 122°36'4 9.0
2018-Jun-27 09:30N 31°05' E 122°31'5 9.7
2018-Jun-27 09:00N 31°06' E 122°25'510.4
2018-Jun-27 08:30N 31°06' E 122°19'611.5
2018-Jun-27 08:01N 31°09' E 122°14'714.6
2018-Jun-27 07:30N 31°13' E 122°07'714.7
2018-Jun-27 07:00N 31°15' E 121°58'1012.6
2018-Jun-27 06:15N 31°18' E 121°48'2 8.6
2018-Jun-27 06:00N 31°18' E 121°45'  
2018-Jun-18 20:27N 31°11' E 121°50'714.6
2018-Jun-18 20:00N 31°07' E 121°56'713.8
2018-Jun-18 19:31N 31°04' E 122°04'612.3
2018-Jun-18 19:01N 31°03' E 122°11'4 7.4
2018-Jun-18 18:30N 31°03' E 122°15'3 5.7
2018-Jun-18 18:00N 31°03' E 122°18'4 7.4
2018-Jun-18 17:29N 31°02' E 122°23'12 3.3
2018-Jun-18 13:49N 31°00' E 122°37'0 0.0
2018-Jun-18 13:28N 31°00' E 122°37'0 0.0
2018-Jun-18 12:48N 31°00' E 122°37'0 0.1
2018-Jun-18 11:01N 31°00' E 122°37'0 0.1
2018-Jun-18 10:48N 31°00' E 122°37'  
Track history (hours):
 
Tides and Currents Weather Stations Pressure Air Temp Water Temp Dewpoint Dewpoint Depression Visibility Wind Speed Wind Dir Waves Ship Positions

Sea Iris

Last reported at 2018-Jun-27 12:46 UTC. Time now 2018-Aug-17 11:42 UTC.
Position N 30°59' E 123°09'.
Warning: this ship's position is 50 days out of date.

Length 189 m; draft 7 m.

Type: Cargo ship. MMSI: 351012000.

Date/timePositionNaut miles runAvg speedWind from/ knotsBaromVisibWave heightAir tempDewpointWater temp
2018-Jun-27 12:46N 30°59' E 123°09'410.2
2018-Jun-27 12:23N 31°02' E 123°06'410.9
2018-Jun-27 12:00N 31°04' E 123°02'910.7
2018-Jun-27 11:09N 31°06' E 122°52'411.4
2018-Jun-27 10:49N 31°06' E 122°47'411.4
2018-Jun-27 10:30N 31°05' E 122°43'611.4
2018-Jun-27 10:00N 31°05' E 122°36'4 9.0
2018-Jun-27 09:30N 31°05' E 122°31'5 9.7
2018-Jun-27 09:00N 31°06' E 122°25'510.4
2018-Jun-27 08:30N 31°06' E 122°19'611.5
2018-Jun-27 08:01N 31°09' E 122°14'714.6
2018-Jun-27 07:30N 31°13' E 122°07'714.7
2018-Jun-27 07:00N 31°15' E 121°58'1012.6
2018-Jun-27 06:15N 31°18' E 121°48'2 8.6
2018-Jun-27 06:00N 31°18' E 121°45'  
2018-Jun-18 20:27N 31°11' E 121°50'714.6
2018-Jun-18 20:00N 31°07' E 121°56'713.8
2018-Jun-18 19:31N 31°04' E 122°04'612.3
2018-Jun-18 19:01N 31°03' E 122°11'4 7.4
2018-Jun-18 18:30N 31°03' E 122°15'3 5.7
2018-Jun-18 18:00N 31°03' E 122°18'4 7.4
2018-Jun-18 17:29N 31°02' E 122°23'12 3.3
2018-Jun-18 13:49N 31°00' E 122°37'0 0.0
2018-Jun-18 13:28N 31°00' E 122°37'0 0.0
2018-Jun-18 12:48N 31°00' E 122°37'0 0.1
2018-Jun-18 11:01N 31°00' E 122°37'0 0.1
2018-Jun-18 10:48N 31°00' E 122°37'  

Dump ship's entire track history